sensor_id;sensor_type;location;lat;lon;timestamp;P1;durP1;ratioP1;P2;durP2;ratioP2
11921;SDS011;6021;51.182;3.160;2022-08-18T00:01:08;34.33;;;25.20;;
11921;SDS011;6021;51.182;3.160;2022-08-18T00:03:39;55.50;;;32.73;;
11921;SDS011;6021;51.182;3.160;2022-08-18T00:06:07;38.10;;;26.93;;
11921;SDS011;6021;51.182;3.160;2022-08-18T00:08:36;27.87;;;21.53;;
11921;SDS011;6021;51.182;3.160;2022-08-18T00:11:04;24.73;;;19.27;;
11921;SDS011;6021;51.182;3.160;2022-08-18T00:13:33;24.93;;;19.97;;
11921;SDS011;6021;51.182;3.160;2022-08-18T00:16:02;30.63;;;22.60;;
11921;SDS011;6021;51.182;3.160;2022-08-18T00:18:30;37.20;;;26.80;;
11921;SDS011;6021;51.182;3.160;2022-08-18T00:20:58;35.53;;;25.70;;
11921;SDS011;6021;51.182;3.160;2022-08-18T00:23:27;34.23;;;25.93;;
11921;SDS011;6021;51.182;3.160;2022-08-18T00:25:55;47.13;;;29.47;;
11921;SDS011;6021;51.182;3.160;2022-08-18T00:28:25;40.60;;;28.10;;
11921;SDS011;6021;51.182;3.160;2022-08-18T00:30:54;35.03;;;24.93;;
11921;SDS011;6021;51.182;3.160;2022-08-18T00:33:22;52.03;;;29.13;;
11921;SDS011;6021;51.182;3.160;2022-08-18T00:35:50;40.17;;;28.50;;
11921;SDS011;6021;51.182;3.160;2022-08-18T00:38:19;38.47;;;26.17;;
11921;SDS011;6021;51.182;3.160;2022-08-18T00:40:48;35.60;;;24.03;;
11921;SDS011;6021;51.182;3.160;2022-08-18T00:43:22;30.93;;;23.63;;
11921;SDS011;6021;51.182;3.160;2022-08-18T00:46:06;30.23;;;22.80;;
11921;SDS011;6021;51.182;3.160;2022-08-18T00:48:36;32.57;;;24.23;;
11921;SDS011;6021;51.182;3.160;2022-08-18T00:51:13;34.60;;;25.70;;
11921;SDS011;6021;51.182;3.160;2022-08-18T00:53:47;34.73;;;25.80;;
11921;SDS011;6021;51.182;3.160;2022-08-18T00:56:25;39.57;;;27.77;;
11921;SDS011;6021;51.182;3.160;2022-08-18T00:58:58;50.90;;;36.77;;
11921;SDS011;6021;51.182;3.160;2022-08-18T01:01:29;45.00;;;31.07;;
11921;SDS011;6021;51.182;3.160;2022-08-18T01:04:01;51.40;;;33.60;;
11921;SDS011;6021;51.182;3.160;2022-08-18T01:09:02;40.47;;;29.13;;
11921;SDS011;6021;51.182;3.160;2022-08-18T01:11:31;42.40;;;27.10;;
11921;SDS011;6021;51.182;3.160;2022-08-18T01:14:00;37.10;;;26.47;;
11921;SDS011;6021;51.182;3.160;2022-08-18T01:16:29;38.13;;;28.37;;
11921;SDS011;6021;51.182;3.160;2022-08-18T01:21:52;45.33;;;32.20;;
11921;SDS011;6021;51.182;3.160;2022-08-18T01:24:23;35.63;;;27.20;;
11921;SDS011;6021;51.182;3.160;2022-08-18T01:27:16;40.00;;;27.40;;
11921;SDS011;6021;51.182;3.160;2022-08-18T01:29:45;38.23;;;28.33;;
11921;SDS011;6021;51.182;3.160;2022-08-18T01:32:21;42.43;;;29.87;;
11921;SDS011;6021;51.182;3.160;2022-08-18T01:34:47;33.53;;;26.23;;
11921;SDS011;6021;51.182;3.160;2022-08-18T01:37:19;29.47;;;23.03;;
11921;SDS011;6021;51.182;3.160;2022-08-18T01:39:49;32.03;;;24.83;;
11921;SDS011;6021;51.182;3.160;2022-08-18T01:42:17;28.70;;;21.17;;
11921;SDS011;6021;51.182;3.160;2022-08-18T01:44:47;25.83;;;20.93;;
11921;SDS011;6021;51.182;3.160;2022-08-18T01:47:16;25.73;;;20.67;;
11921;SDS011;6021;51.182;3.160;2022-08-18T01:49:46;23.37;;;20.10;;
11921;SDS011;6021;51.182;3.160;2022-08-18T01:52:17;36.00;;;28.07;;
11921;SDS011;6021;51.182;3.160;2022-08-18T01:54:48;33.60;;;27.50;;
11921;SDS011;6021;51.182;3.160;2022-08-18T01:57:18;35.10;;;28.87;;
11921;SDS011;6021;51.182;3.160;2022-08-18T01:59:47;38.87;;;31.00;;
11921;SDS011;6021;51.182;3.160;2022-08-18T02:02:17;34.83;;;27.97;;
11921;SDS011;6021;51.182;3.160;2022-08-18T02:04:51;27.47;;;22.80;;
11921;SDS011;6021;51.182;3.160;2022-08-18T02:07:22;25.93;;;21.10;;
11921;SDS011;6021;51.182;3.160;2022-08-18T02:09:50;31.27;;;24.57;;
11921;SDS011;6021;51.182;3.160;2022-08-18T02:12:18;33.10;;;25.23;;
11921;SDS011;6021;51.182;3.160;2022-08-18T02:14:47;27.33;;;22.27;;
11921;SDS011;6021;51.182;3.160;2022-08-18T02:17:17;28.77;;;22.67;;
11921;SDS011;6021;51.182;3.160;2022-08-18T02:19:46;29.77;;;22.63;;
11921;SDS011;6021;51.182;3.160;2022-08-18T02:22:17;28.27;;;22.80;;
11921;SDS011;6021;51.182;3.160;2022-08-18T02:24:45;31.13;;;24.73;;
11921;SDS011;6021;51.182;3.160;2022-08-18T02:27:14;28.17;;;23.67;;
11921;SDS011;6021;51.182;3.160;2022-08-18T02:29:43;28.73;;;23.50;;
11921;SDS011;6021;51.182;3.160;2022-08-18T02:32:12;29.67;;;24.10;;
11921;SDS011;6021;51.182;3.160;2022-08-18T02:34:40;29.80;;;23.87;;
11921;SDS011;6021;51.182;3.160;2022-08-18T02:37:08;39.50;;;28.10;;
11921;SDS011;6021;51.182;3.160;2022-08-18T02:39:37;33.07;;;27.40;;
11921;SDS011;6021;51.182;3.160;2022-08-18T02:42:05;31.37;;;24.07;;
11921;SDS011;6021;51.182;3.160;2022-08-18T02:44:34;27.40;;;20.93;;
11921;SDS011;6021;51.182;3.160;2022-08-18T02:47:02;23.63;;;19.87;;
11921;SDS011;6021;51.182;3.160;2022-08-18T02:49:31;26.53;;;21.00;;
11921;SDS011;6021;51.182;3.160;2022-08-18T02:51:59;29.50;;;24.00;;
11921;SDS011;6021;51.182;3.160;2022-08-18T02:54:28;26.37;;;21.83;;
11921;SDS011;6021;51.182;3.160;2022-08-18T02:56:56;30.53;;;24.93;;
11921;SDS011;6021;51.182;3.160;2022-08-18T02:59:25;26.97;;;23.00;;
11921;SDS011;6021;51.182;3.160;2022-08-18T03:01:54;34.83;;;27.07;;
11921;SDS011;6021;51.182;3.160;2022-08-18T03:04:25;30.63;;;23.77;;
11921;SDS011;6021;51.182;3.160;2022-08-18T03:06:55;22.60;;;19.20;;
11921;SDS011;6021;51.182;3.160;2022-08-18T03:09:25;24.20;;;20.70;;
11921;SDS011;6021;51.182;3.160;2022-08-18T03:11:54;40.53;;;28.47;;
11921;SDS011;6021;51.182;3.160;2022-08-18T03:14:24;37.53;;;27.30;;
11921;SDS011;6021;51.182;3.160;2022-08-18T03:16:52;53.03;;;27.30;;
11921;SDS011;6021;51.182;3.160;2022-08-18T03:19:26;50.70;;;27.13;;
11921;SDS011;6021;51.182;3.160;2022-08-18T03:21:56;34.30;;;28.97;;
11921;SDS011;6021;51.182;3.160;2022-08-18T03:24:26;37.43;;;27.27;;
11921;SDS011;6021;51.182;3.160;2022-08-18T03:26:55;54.37;;;35.20;;
11921;SDS011;6021;51.182;3.160;2022-08-18T03:29:24;45.97;;;30.67;;
11921;SDS011;6021;51.182;3.160;2022-08-18T03:31:52;28.80;;;22.23;;
11921;SDS011;6021;51.182;3.160;2022-08-18T03:34:21;28.63;;;20.70;;
11921;SDS011;6021;51.182;3.160;2022-08-18T03:36:49;28.53;;;21.00;;
11921;SDS011;6021;51.182;3.160;2022-08-18T03:39:18;33.40;;;25.10;;
11921;SDS011;6021;51.182;3.160;2022-08-18T03:41:49;33.47;;;25.67;;
11921;SDS011;6021;51.182;3.160;2022-08-18T03:44:21;32.63;;;24.63;;
11921;SDS011;6021;51.182;3.160;2022-08-18T03:46:50;30.03;;;23.40;;
11921;SDS011;6021;51.182;3.160;2022-08-18T03:49:19;23.97;;;20.23;;
11921;SDS011;6021;51.182;3.160;2022-08-18T03:51:47;26.77;;;21.57;;
11921;SDS011;6021;51.182;3.160;2022-08-18T03:54:17;29.13;;;24.27;;
11921;SDS011;6021;51.182;3.160;2022-08-18T03:56:46;30.43;;;24.33;;
11921;SDS011;6021;51.182;3.160;2022-08-18T03:59:16;26.73;;;21.67;;
11921;SDS011;6021;51.182;3.160;2022-08-18T04:01:47;23.77;;;20.63;;
11921;SDS011;6021;51.182;3.160;2022-08-18T04:04:18;26.77;;;22.03;;
11921;SDS011;6021;51.182;3.160;2022-08-18T04:06:49;25.20;;;21.20;;
11921;SDS011;6021;51.182;3.160;2022-08-18T04:09:24;28.50;;;23.33;;
11921;SDS011;6021;51.182;3.160;2022-08-18T04:11:54;28.90;;;24.17;;
11921;SDS011;6021;51.182;3.160;2022-08-18T04:14:25;28.50;;;22.87;;
11921;SDS011;6021;51.182;3.160;2022-08-18T04:16:55;25.87;;;21.27;;
11921;SDS011;6021;51.182;3.160;2022-08-18T04:19:25;25.20;;;20.23;;
11921;SDS011;6021;51.182;3.160;2022-08-18T04:21:54;22.87;;;19.30;;
11921;SDS011;6021;51.182;3.160;2022-08-18T04:24:26;33.77;;;28.40;;
11921;SDS011;6021;51.182;3.160;2022-08-18T04:26:56;28.83;;;24.30;;
11921;SDS011;6021;51.182;3.160;2022-08-18T04:29:26;32.80;;;26.53;;
11921;SDS011;6021;51.182;3.160;2022-08-18T04:31:55;27.17;;;23.40;;
11921;SDS011;6021;51.182;3.160;2022-08-18T04:34:25;28.43;;;23.17;;
11921;SDS011;6021;51.182;3.160;2022-08-18T04:36:53;24.40;;;21.27;;
11921;SDS011;6021;51.182;3.160;2022-08-18T04:39:22;22.43;;;19.20;;
11921;SDS011;6021;51.182;3.160;2022-08-18T04:41:51;23.83;;;21.30;;
11921;SDS011;6021;51.182;3.160;2022-08-18T04:44:19;35.13;;;26.30;;
11921;SDS011;6021;51.182;3.160;2022-08-18T04:46:51;37.83;;;30.20;;
11921;SDS011;6021;51.182;3.160;2022-08-18T04:49:20;44.97;;;30.47;;
11921;SDS011;6021;51.182;3.160;2022-08-18T04:51:51;59.17;;;32.73;;
11921;SDS011;6021;51.182;3.160;2022-08-18T04:54:39;52.20;;;35.27;;
11921;SDS011;6021;51.182;3.160;2022-08-18T04:57:08;34.57;;;26.23;;
11921;SDS011;6021;51.182;3.160;2022-08-18T04:59:39;30.40;;;24.20;;
11921;SDS011;6021;51.182;3.160;2022-08-18T05:02:09;30.27;;;23.80;;
11921;SDS011;6021;51.182;3.160;2022-08-18T05:04:40;34.63;;;25.00;;
11921;SDS011;6021;51.182;3.160;2022-08-18T05:07:11;33.93;;;27.30;;
11921;SDS011;6021;51.182;3.160;2022-08-18T05:09:41;25.70;;;21.60;;
11921;SDS011;6021;51.182;3.160;2022-08-18T05:12:10;24.67;;;19.87;;
11921;SDS011;6021;51.182;3.160;2022-08-18T05:14:40;33.67;;;26.17;;
11921;SDS011;6021;51.182;3.160;2022-08-18T05:17:11;28.13;;;22.87;;
11921;SDS011;6021;51.182;3.160;2022-08-18T05:19:41;22.57;;;19.70;;
11921;SDS011;6021;51.182;3.160;2022-08-18T05:22:11;30.03;;;23.50;;
11921;SDS011;6021;51.182;3.160;2022-08-18T05:24:41;27.20;;;21.17;;
11921;SDS011;6021;51.182;3.160;2022-08-18T05:27:10;24.93;;;20.73;;
11921;SDS011;6021;51.182;3.160;2022-08-18T05:29:38;22.30;;;19.03;;
11921;SDS011;6021;51.182;3.160;2022-08-18T05:32:07;29.70;;;24.80;;
11921;SDS011;6021;51.182;3.160;2022-08-18T05:34:35;32.80;;;25.47;;
11921;SDS011;6021;51.182;3.160;2022-08-18T05:39:46;20.97;;;18.33;;
11921;SDS011;6021;51.182;3.160;2022-08-18T05:42:15;33.63;;;24.17;;
11921;SDS011;6021;51.182;3.160;2022-08-18T05:44:47;31.53;;;24.93;;
11921;SDS011;6021;51.182;3.160;2022-08-18T05:47:32;34.00;;;24.87;;
11921;SDS011;6021;51.182;3.160;2022-08-18T05:50:02;25.57;;;19.87;;
11921;SDS011;6021;51.182;3.160;2022-08-18T05:58:48;23.73;;;20.40;;
11921;SDS011;6021;51.182;3.160;2022-08-18T06:01:25;26.63;;;22.10;;
11921;SDS011;6021;51.182;3.160;2022-08-18T06:03:52;25.33;;;22.33;;
11921;SDS011;6021;51.182;3.160;2022-08-18T06:06:25;34.60;;;25.87;;
11921;SDS011;6021;51.182;3.160;2022-08-18T06:09:14;28.90;;;22.83;;
11921;SDS011;6021;51.182;3.160;2022-08-18T06:11:44;29.40;;;23.93;;
11921;SDS011;6021;51.182;3.160;2022-08-18T06:14:12;27.47;;;22.93;;
11921;SDS011;6021;51.182;3.160;2022-08-18T06:16:45;33.23;;;25.23;;
11921;SDS011;6021;51.182;3.160;2022-08-18T06:19:22;25.83;;;21.43;;
11921;SDS011;6021;51.182;3.160;2022-08-18T06:21:59;32.83;;;24.73;;
11921;SDS011;6021;51.182;3.160;2022-08-18T06:24:37;35.90;;;25.60;;
11921;SDS011;6021;51.182;3.160;2022-08-18T06:44:02;24.33;;;20.50;;
11921;SDS011;6021;51.182;3.160;2022-08-18T06:46:45;29.20;;;23.67;;
11921;SDS011;6021;51.182;3.160;2022-08-18T06:49:34;21.23;;;17.40;;
11921;SDS011;6021;51.182;3.160;2022-08-18T06:51:46;24.13;;;21.50;;
11921;SDS011;6021;51.182;3.160;2022-08-18T06:56:50;28.37;;;24.57;;
11921;SDS011;6021;51.182;3.160;2022-08-18T06:59:30;27.73;;;23.47;;
11921;SDS011;6021;51.182;3.160;2022-08-18T07:02:01;22.10;;;19.80;;
11921;SDS011;6021;51.182;3.160;2022-08-18T07:04:56;26.77;;;23.90;;
11921;SDS011;6021;51.182;3.160;2022-08-18T07:07:33;21.53;;;19.33;;
11921;SDS011;6021;51.182;3.160;2022-08-18T07:10:06;26.90;;;24.10;;
11921;SDS011;6021;51.182;3.160;2022-08-18T07:12:42;28.03;;;25.03;;
11921;SDS011;6021;51.182;3.160;2022-08-18T07:15:11;32.87;;;29.20;;
11921;SDS011;6021;51.182;3.160;2022-08-18T07:17:39;38.00;;;30.87;;
11921;SDS011;6021;51.182;3.160;2022-08-18T07:20:21;36.27;;;31.53;;
11921;SDS011;6021;51.182;3.160;2022-08-18T07:25:26;45.40;;;33.80;;
11921;SDS011;6021;51.182;3.160;2022-08-18T07:27:55;36.97;;;29.47;;
11921;SDS011;6021;51.182;3.160;2022-08-18T07:30:28;45.57;;;33.83;;
11921;SDS011;6021;51.182;3.160;2022-08-18T07:33:07;38.50;;;30.50;;
11921;SDS011;6021;51.182;3.160;2022-08-18T07:35:52;36.57;;;29.50;;
11921;SDS011;6021;51.182;3.160;2022-08-18T07:40:54;33.00;;;29.20;;
11921;SDS011;6021;51.182;3.160;2022-08-18T07:49:20;33.53;;;29.87;;
11921;SDS011;6021;51.182;3.160;2022-08-18T07:54:36;28.97;;;26.07;;
11921;SDS011;6021;51.182;3.160;2022-08-18T08:00:13;32.07;;;28.73;;
11921;SDS011;6021;51.182;3.160;2022-08-18T08:02:54;26.70;;;24.00;;
11921;SDS011;6021;51.182;3.160;2022-08-18T08:05:41;32.00;;;27.10;;
11921;SDS011;6021;51.182;3.160;2022-08-18T08:13:42;27.23;;;24.07;;
11921;SDS011;6021;51.182;3.160;2022-08-18T08:19:12;24.10;;;21.67;;
11921;SDS011;6021;51.182;3.160;2022-08-18T08:21:47;29.63;;;26.47;;
11921;SDS011;6021;51.182;3.160;2022-08-18T08:24:17;30.77;;;27.67;;
11921;SDS011;6021;51.182;3.160;2022-08-18T08:27:10;25.03;;;22.50;;
11921;SDS011;6021;51.182;3.160;2022-08-18T08:32:36;22.83;;;20.83;;
11921;SDS011;6021;51.182;3.160;2022-08-18T08:35:13;21.73;;;19.73;;
11921;SDS011;6021;51.182;3.160;2022-08-18T08:40:27;19.13;;;17.20;;
11921;SDS011;6021;51.182;3.160;2022-08-18T08:43:05;19.27;;;17.47;;
11921;SDS011;6021;51.182;3.160;2022-08-18T08:48:39;16.50;;;15.10;;
11921;SDS011;6021;51.182;3.160;2022-08-18T08:51:15;14.60;;;13.40;;
11921;SDS011;6021;51.182;3.160;2022-08-18T08:53:45;18.60;;;17.07;;
11921;SDS011;6021;51.182;3.160;2022-08-18T08:56:16;17.10;;;15.70;;
11921;SDS011;6021;51.182;3.160;2022-08-18T08:58:48;18.07;;;16.53;;
11921;SDS011;6021;51.182;3.160;2022-08-18T09:01:25;17.23;;;15.63;;
11921;SDS011;6021;51.182;3.160;2022-08-18T09:03:57;17.90;;;16.10;;
11921;SDS011;6021;51.182;3.160;2022-08-18T09:06:54;19.33;;;17.53;;
11921;SDS011;6021;51.182;3.160;2022-08-18T09:15:07;19.47;;;17.77;;
11921;SDS011;6021;51.182;3.160;2022-08-18T09:17:53;18.20;;;16.67;;
11921;SDS011;6021;51.182;3.160;2022-08-18T09:23:31;17.83;;;16.20;;
11921;SDS011;6021;51.182;3.160;2022-08-18T09:26:25;15.13;;;13.90;;
11921;SDS011;6021;51.182;3.160;2022-08-18T09:29:20;18.00;;;16.30;;
11921;SDS011;6021;51.182;3.160;2022-08-18T09:37:51;19.53;;;17.70;;
11921;SDS011;6021;51.182;3.160;2022-08-18T09:40:30;17.23;;;15.50;;
11921;SDS011;6021;51.182;3.160;2022-08-18T09:46:00;15.30;;;13.90;;
11921;SDS011;6021;51.182;3.160;2022-08-18T09:48:36;17.23;;;15.60;;
11921;SDS011;6021;51.182;3.160;2022-08-18T09:54:08;14.23;;;13.03;;
11921;SDS011;6021;51.182;3.160;2022-08-18T10:02:03;16.20;;;14.70;;
11921;SDS011;6021;51.182;3.160;2022-08-18T10:04:38;17.13;;;15.63;;
11921;SDS011;6021;51.182;3.160;2022-08-18T10:07:19;15.33;;;14.03;;
11921;SDS011;6021;51.182;3.160;2022-08-18T10:10:09;15.37;;;14.07;;
11921;SDS011;6021;51.182;3.160;2022-08-18T10:12:59;16.53;;;15.03;;
11921;SDS011;6021;51.182;3.160;2022-08-18T10:29:07;12.77;;;11.70;;
11921;SDS011;6021;51.182;3.160;2022-08-18T10:42:49;10.50;;;9.60;;
11921;SDS011;6021;51.182;3.160;2022-08-18T10:45:25;9.70;;;8.90;;
11921;SDS011;6021;51.182;3.160;2022-08-18T10:48:07;10.10;;;9.10;;
11921;SDS011;6021;51.182;3.160;2022-08-18T10:51:01;9.33;;;8.47;;
11921;SDS011;6021;51.182;3.160;2022-08-18T10:57:03;8.40;;;7.70;;
11921;SDS011;6021;51.182;3.160;2022-08-18T11:01:45;9.70;;;8.80;;
11921;SDS011;6021;51.182;3.160;2022-08-18T11:04:29;8.30;;;7.50;;
11921;SDS011;6021;51.182;3.160;2022-08-18T11:09:43;8.80;;;8.00;;
11921;SDS011;6021;51.182;3.160;2022-08-18T11:12:15;10.70;;;9.70;;
11921;SDS011;6021;51.182;3.160;2022-08-18T11:15:06;9.90;;;9.10;;
11921;SDS011;6021;51.182;3.160;2022-08-18T11:20:29;9.10;;;7.87;;
11921;SDS011;6021;51.182;3.160;2022-08-18T11:23:00;9.20;;;8.37;;
11921;SDS011;6021;51.182;3.160;2022-08-18T11:25:31;7.97;;;7.37;;
11921;SDS011;6021;51.182;3.160;2022-08-18T11:28:01;8.07;;;7.37;;
11921;SDS011;6021;51.182;3.160;2022-08-18T11:30:32;8.50;;;7.80;;
11921;SDS011;6021;51.182;3.160;2022-08-18T11:33:03;8.87;;;8.17;;
11921;SDS011;6021;51.182;3.160;2022-08-18T11:35:33;8.87;;;8.17;;
11921;SDS011;6021;51.182;3.160;2022-08-18T11:38:07;9.80;;;9.00;;
11921;SDS011;6021;51.182;3.160;2022-08-18T11:40:36;9.60;;;8.80;;
11921;SDS011;6021;51.182;3.160;2022-08-18T11:43:11;10.23;;;9.40;;
11921;SDS011;6021;51.182;3.160;2022-08-18T11:48:21;9.10;;;8.40;;
11921;SDS011;6021;51.182;3.160;2022-08-18T11:59:30;9.20;;;8.40;;
11921;SDS011;6021;51.182;3.160;2022-08-18T12:01:55;8.63;;;7.83;;
11921;SDS011;6021;51.182;3.160;2022-08-18T12:04:34;8.13;;;7.43;;
11921;SDS011;6021;51.182;3.160;2022-08-18T12:07:13;7.70;;;7.10;;
11921;SDS011;6021;51.182;3.160;2022-08-18T12:09:44;9.37;;;8.50;;
11921;SDS011;6021;51.182;3.160;2022-08-18T12:12:15;10.67;;;9.67;;
11921;SDS011;6021;51.182;3.160;2022-08-18T12:17:25;8.33;;;7.37;;
11921;SDS011;6021;51.182;3.160;2022-08-18T12:20:03;8.60;;;7.83;;
11921;SDS011;6021;51.182;3.160;2022-08-18T12:22:34;8.47;;;7.67;;
11921;SDS011;6021;51.182;3.160;2022-08-18T12:25:05;9.27;;;8.47;;
11921;SDS011;6021;51.182;3.160;2022-08-18T12:27:35;8.47;;;7.77;;
11921;SDS011;6021;51.182;3.160;2022-08-18T12:30:04;7.60;;;6.90;;
11921;SDS011;6021;51.182;3.160;2022-08-18T12:32:34;8.30;;;7.60;;
11921;SDS011;6021;51.182;3.160;2022-08-18T12:35:04;9.73;;;8.67;;
11921;SDS011;6021;51.182;3.160;2022-08-18T12:37:34;9.90;;;8.87;;
11921;SDS011;6021;51.182;3.160;2022-08-18T12:40:04;9.50;;;8.60;;
11921;SDS011;6021;51.182;3.160;2022-08-18T12:42:33;8.30;;;7.60;;
11921;SDS011;6021;51.182;3.160;2022-08-18T12:45:02;8.90;;;8.10;;
11921;SDS011;6021;51.182;3.160;2022-08-18T12:47:30;8.77;;;8.03;;
11921;SDS011;6021;51.182;3.160;2022-08-18T12:49:59;8.50;;;7.67;;
11921;SDS011;6021;51.182;3.160;2022-08-18T12:52:27;8.60;;;7.90;;
11921;SDS011;6021;51.182;3.160;2022-08-18T12:54:55;8.13;;;7.40;;
11921;SDS011;6021;51.182;3.160;2022-08-18T12:57:24;9.70;;;8.90;;
11921;SDS011;6021;51.182;3.160;2022-08-18T12:59:54;8.53;;;7.77;;
11921;SDS011;6021;51.182;3.160;2022-08-18T13:02:23;8.30;;;7.60;;
11921;SDS011;6021;51.182;3.160;2022-08-18T13:04:51;8.93;;;8.10;;
11921;SDS011;6021;51.182;3.160;2022-08-18T13:07:20;7.47;;;6.80;;
11921;SDS011;6021;51.182;3.160;2022-08-18T13:09:48;8.13;;;7.40;;
11921;SDS011;6021;51.182;3.160;2022-08-18T13:12:16;9.60;;;8.70;;
11921;SDS011;6021;51.182;3.160;2022-08-18T13:14:45;9.17;;;8.40;;
11921;SDS011;6021;51.182;3.160;2022-08-18T13:17:15;9.43;;;8.63;;
11921;SDS011;6021;51.182;3.160;2022-08-18T13:19:45;9.20;;;8.50;;
11921;SDS011;6021;51.182;3.160;2022-08-18T13:22:13;8.13;;;7.43;;
11921;SDS011;6021;51.182;3.160;2022-08-18T13:24:42;7.80;;;7.20;;
11921;SDS011;6021;51.182;3.160;2022-08-18T13:27:10;8.13;;;7.53;;
11921;SDS011;6021;51.182;3.160;2022-08-18T13:29:38;8.40;;;7.70;;
11921;SDS011;6021;51.182;3.160;2022-08-18T13:32:07;8.90;;;8.17;;
11921;SDS011;6021;51.182;3.160;2022-08-18T13:34:35;10.07;;;9.17;;
11921;SDS011;6021;51.182;3.160;2022-08-18T13:39:35;10.80;;;9.80;;
11921;SDS011;6021;51.182;3.160;2022-08-18T13:42:03;11.03;;;10.03;;
11921;SDS011;6021;51.182;3.160;2022-08-18T13:44:32;10.80;;;9.73;;
11921;SDS011;6021;51.182;3.160;2022-08-18T13:47:00;10.77;;;9.77;;
11921;SDS011;6021;51.182;3.160;2022-08-18T13:49:29;11.57;;;10.50;;
11921;SDS011;6021;51.182;3.160;2022-08-18T13:51:58;8.70;;;8.00;;
11921;SDS011;6021;51.182;3.160;2022-08-18T13:54:30;9.30;;;8.40;;
11921;SDS011;6021;51.182;3.160;2022-08-18T13:57:02;8.87;;;8.17;;
11921;SDS011;6021;51.182;3.160;2022-08-18T13:59:31;11.07;;;10.13;;
11921;SDS011;6021;51.182;3.160;2022-08-18T14:02:01;9.57;;;8.67;;
11921;SDS011;6021;51.182;3.160;2022-08-18T14:04:31;8.73;;;7.93;;
11921;SDS011;6021;51.182;3.160;2022-08-18T14:07:00;10.17;;;9.17;;
11921;SDS011;6021;51.182;3.160;2022-08-18T14:09:29;9.07;;;8.37;;
11921;SDS011;6021;51.182;3.160;2022-08-18T14:11:58;9.67;;;8.90;;
11921;SDS011;6021;51.182;3.160;2022-08-18T14:14:26;10.93;;;9.93;;
11921;SDS011;6021;51.182;3.160;2022-08-18T14:16:55;9.10;;;8.30;;
11921;SDS011;6021;51.182;3.160;2022-08-18T14:19:24;10.17;;;9.27;;
11921;SDS011;6021;51.182;3.160;2022-08-18T14:22:10;9.23;;;8.40;;
11921;SDS011;6021;51.182;3.160;2022-08-18T14:24:56;8.10;;;7.50;;
11921;SDS011;6021;51.182;3.160;2022-08-18T14:27:42;9.30;;;8.50;;
11921;SDS011;6021;51.182;3.160;2022-08-18T14:30:11;9.47;;;8.73;;
11921;SDS011;6021;51.182;3.160;2022-08-18T14:32:40;10.23;;;9.30;;
11921;SDS011;6021;51.182;3.160;2022-08-18T14:35:09;8.03;;;7.33;;
11921;SDS011;6021;51.182;3.160;2022-08-18T14:37:39;9.77;;;8.97;;
11921;SDS011;6021;51.182;3.160;2022-08-18T14:40:08;9.40;;;8.60;;
11921;SDS011;6021;51.182;3.160;2022-08-18T14:42:37;11.03;;;10.13;;
11921;SDS011;6021;51.182;3.160;2022-08-18T14:45:07;9.60;;;8.70;;
11921;SDS011;6021;51.182;3.160;2022-08-18T14:47:38;8.87;;;8.17;;
11921;SDS011;6021;51.182;3.160;2022-08-18T14:50:08;8.83;;;8.03;;
11921;SDS011;6021;51.182;3.160;2022-08-18T14:52:39;10.13;;;9.33;;
11921;SDS011;6021;51.182;3.160;2022-08-18T14:55:08;10.20;;;9.30;;
11921;SDS011;6021;51.182;3.160;2022-08-18T14:57:39;8.13;;;7.53;;
11921;SDS011;6021;51.182;3.160;2022-08-18T15:00:09;7.80;;;7.10;;
11921;SDS011;6021;51.182;3.160;2022-08-18T15:05:15;11.43;;;10.50;;
11921;SDS011;6021;51.182;3.160;2022-08-18T15:07:44;9.00;;;8.20;;
11921;SDS011;6021;51.182;3.160;2022-08-18T15:10:13;9.53;;;8.73;;
11921;SDS011;6021;51.182;3.160;2022-08-18T15:12:42;9.27;;;8.47;;
11921;SDS011;6021;51.182;3.160;2022-08-18T15:15:11;9.40;;;8.60;;
11921;SDS011;6021;51.182;3.160;2022-08-18T15:17:41;9.30;;;8.40;;
11921;SDS011;6021;51.182;3.160;2022-08-18T15:20:09;9.33;;;8.53;;
11921;SDS011;6021;51.182;3.160;2022-08-18T15:22:39;8.90;;;8.20;;
11921;SDS011;6021;51.182;3.160;2022-08-18T15:25:26;8.07;;;7.47;;
11921;SDS011;6021;51.182;3.160;2022-08-18T15:28:12;10.07;;;9.17;;
11921;SDS011;6021;51.182;3.160;2022-08-18T15:30:46;8.37;;;7.30;;
11921;SDS011;6021;51.182;3.160;2022-08-18T15:33:17;7.90;;;7.23;;
11921;SDS011;6021;51.182;3.160;2022-08-18T15:35:47;11.13;;;10.13;;
11921;SDS011;6021;51.182;3.160;2022-08-18T15:38:20;7.80;;;7.20;;
11921;SDS011;6021;51.182;3.160;2022-08-18T15:40:55;8.03;;;7.43;;
11921;SDS011;6021;51.182;3.160;2022-08-18T15:43:23;9.20;;;8.43;;
11921;SDS011;6021;51.182;3.160;2022-08-18T15:45:53;8.47;;;7.77;;
11921;SDS011;6021;51.182;3.160;2022-08-18T15:48:21;9.00;;;8.20;;
11921;SDS011;6021;51.182;3.160;2022-08-18T15:50:51;8.83;;;8.13;;
11921;SDS011;6021;51.182;3.160;2022-08-18T15:53:21;8.60;;;7.80;;
11921;SDS011;6021;51.182;3.160;2022-08-18T15:55:51;8.80;;;8.10;;
11921;SDS011;6021;51.182;3.160;2022-08-18T15:58:19;9.47;;;8.67;;
11921;SDS011;6021;51.182;3.160;2022-08-18T16:00:48;9.13;;;8.37;;
11921;SDS011;6021;51.182;3.160;2022-08-18T16:03:18;8.30;;;7.70;;
11921;SDS011;6021;51.182;3.160;2022-08-18T16:08:21;10.07;;;9.27;;
11921;SDS011;6021;51.182;3.160;2022-08-18T16:10:51;8.07;;;7.37;;
11921;SDS011;6021;51.182;3.160;2022-08-18T16:13:20;8.10;;;7.40;;
11921;SDS011;6021;51.182;3.160;2022-08-18T16:15:51;8.67;;;8.07;;
11921;SDS011;6021;51.182;3.160;2022-08-18T16:18:19;8.57;;;7.83;;
11921;SDS011;6021;51.182;3.160;2022-08-18T16:20:47;9.10;;;8.30;;
11921;SDS011;6021;51.182;3.160;2022-08-18T16:25:47;8.80;;;8.00;;
11921;SDS011;6021;51.182;3.160;2022-08-18T16:28:16;9.00;;;8.30;;
11921;SDS011;6021;51.182;3.160;2022-08-18T16:30:45;8.90;;;8.20;;
11921;SDS011;6021;51.182;3.160;2022-08-18T16:33:13;7.77;;;7.17;;
11921;SDS011;6021;51.182;3.160;2022-08-18T16:35:41;9.40;;;8.50;;
11921;SDS011;6021;51.182;3.160;2022-08-18T16:38:11;7.93;;;7.33;;
11921;SDS011;6021;51.182;3.160;2022-08-18T16:40:40;8.20;;;7.60;;
11921;SDS011;6021;51.182;3.160;2022-08-18T16:43:09;7.80;;;7.20;;
11921;SDS011;6021;51.182;3.160;2022-08-18T16:45:38;7.43;;;6.90;;
11921;SDS011;6021;51.182;3.160;2022-08-18T16:48:08;8.67;;;7.97;;
11921;SDS011;6021;51.182;3.160;2022-08-18T16:50:37;7.07;;;6.57;;
11921;SDS011;6021;51.182;3.160;2022-08-18T16:53:07;8.33;;;7.73;;
11921;SDS011;6021;51.182;3.160;2022-08-18T16:55:35;8.30;;;7.60;;
11921;SDS011;6021;51.182;3.160;2022-08-18T16:58:04;7.50;;;6.90;;
11921;SDS011;6021;51.182;3.160;2022-08-18T17:00:50;10.97;;;9.97;;
11921;SDS011;6021;51.182;3.160;2022-08-18T17:03:37;9.50;;;8.77;;
11921;SDS011;6021;51.182;3.160;2022-08-18T17:06:23;8.40;;;7.80;;
11921;SDS011;6021;51.182;3.160;2022-08-18T17:08:54;10.47;;;9.67;;
11921;SDS011;6021;51.182;3.160;2022-08-18T17:11:24;9.47;;;8.77;;
11921;SDS011;6021;51.182;3.160;2022-08-18T17:13:56;8.67;;;7.97;;
11921;SDS011;6021;51.182;3.160;2022-08-18T17:16:25;8.60;;;7.90;;
11921;SDS011;6021;51.182;3.160;2022-08-18T17:18:56;9.20;;;8.50;;
11921;SDS011;6021;51.182;3.160;2022-08-18T17:21:26;8.77;;;8.17;;
11921;SDS011;6021;51.182;3.160;2022-08-18T17:23:57;10.33;;;9.53;;
11921;SDS011;6021;51.182;3.160;2022-08-18T17:29:21;10.47;;;9.67;;
11921;SDS011;6021;51.182;3.160;2022-08-18T17:32:00;11.13;;;10.20;;
11921;SDS011;6021;51.182;3.160;2022-08-18T17:34:33;9.53;;;8.83;;
11921;SDS011;6021;51.182;3.160;2022-08-18T17:37:02;9.10;;;8.37;;
11921;SDS011;6021;51.182;3.160;2022-08-18T17:39:35;8.50;;;7.90;;
11921;SDS011;6021;51.182;3.160;2022-08-18T17:42:05;11.67;;;10.57;;
11921;SDS011;6021;51.182;3.160;2022-08-18T17:44:57;9.80;;;9.10;;
11921;SDS011;6021;51.182;3.160;2022-08-18T17:47:29;8.03;;;7.33;;
11921;SDS011;6021;51.182;3.160;2022-08-18T17:50:03;9.40;;;8.60;;